Minneapolis, Minnesota
Traffic Map
Current Weather Conditions
Minneapolis, Minnesota
Broken Clouds
Broken Clouds
28°
Feels Like: 29°
Wind Chill: 28° Ceiling: 30000
Heat Index: 29° Visibility: 7mi
Dew Point: 20° Wind: 14mph
Humidity: 62% Direction: 160° (SSE)
Pressure: 29.79in Gusts: 20mph
Raw Report DataKMSP 060153Z 16012G17KT 7SM SCT045 BKN300 28/20 A2979 RMK AO2 SLP082 T02780200
Traffic Incident Summary
Active as of:
Severity:
Category:
InformationThere was an issue retrieving the traffic information for this location. Please try a different location or try again shortly.
Advertisements
Track Severe Weather on mobile